Time;durP1;ratioP1;P1;durP2;ratioP2;P2;SDS_P1;SDS_P2;PMS_P1;PMS_P2;Temp;Humidity;BMP_temperature;BMP_pressure;BME280_temperature;BME280_humidity;BME280_pressure;Samples;Min_cycle;Max_cycle;Signal;HPM_P1;HPM_P2
2023/12/23 00:01:28;;;;;;;9.05;1.80;;;;;;;5.56;100.00;100713.25;5067414;28;20052;-58
2023/12/23 00:03:58;;;;;;;12.45;1.63;;;;;;;5.53;100.00;100721.19;5069762;28;20049;-58
2023/12/23 00:06:26;;;;;;;8.10;2.20;;;;;;;5.56;100.00;100722.81;5071395;28;20446;-58
2023/12/23 00:08:57;;;;;;;7.72;1.23;;;;;;;5.56;100.00;100722.81;5070901;28;20044;-58
2023/12/23 00:11:26;;;;;;;10.57;1.75;;;;;;;5.56;100.00;100723.69;5069707;28;20083;-58
2023/12/23 00:13:57;;;;;;;;;;;;;;;5.57;100.00;100729.72;5071491;28;20120;-58
2023/12/23 00:16:27;;;;;;;12.70;1.70;;;;;;;5.59;100.00;100733.97;5068119;28;19932;-58
2023/12/23 00:18:56;;;;;;;13.27;1.95;;;;;;;5.62;100.00;100738.19;5067535;28;20102;-58
2023/12/23 00:21:24;;;;;;;9.05;1.55;;;;;;;5.64;100.00;100731.13;5070908;28;20072;-58
2023/12/23 00:23:52;;;;;;;8.48;1.20;;;;;;;5.63;100.00;100733.81;5071279;28;20052;-57
2023/12/23 00:26:21;;;;;;;10.80;1.52;;;;;;;5.64;100.00;100733.72;5070981;28;20045;-57
2023/12/23 00:28:50;;;;;;;11.02;1.40;;;;;;;5.70;100.00;100745.66;5071183;28;20585;-57
2023/12/23 00:31:21;;;;;;;;;;;;;;;5.69;100.00;100721.34;5071385;28;20388;-58
2023/12/23 00:33:49;;;;;;;8.55;1.38;;;;;;;5.69;100.00;100726.53;5074505;28;19921;-58
2023/12/23 00:36:20;;;;;;;9.40;1.23;;;;;;;5.70;100.00;100720.41;5074401;28;20414;-57
2023/12/23 00:38:49;;;;;;;8.52;1.30;;;;;;;5.73;100.00;100706.38;5074438;28;20079;-57
2023/12/23 00:41:17;;;;;;;9.68;1.35;;;;;;;5.72;100.00;100702.91;5072058;28;20064;-58
2023/12/23 00:43:45;;;;;;;6.35;1.42;;;;;;;5.73;100.00;100703.78;5070504;28;20151;-58
2023/12/23 00:46:16;;;;;;;9.77;1.52;;;;;;;5.73;100.00;100698.56;5073795;28;20559;-58
2023/12/23 00:48:44;;;;;;;10.65;1.75;;;;;;;5.74;100.00;100697.66;5072932;28;20094;-57
2023/12/23 00:51:13;;;;;;;11.48;1.52;;;;;;;5.74;100.00;100693.25;5074184;28;20041;-58
2023/12/23 00:53:41;;;;;;;10.85;1.92;;;;;;;5.72;100.00;100695.09;5074273;28;20445;-57
2023/12/23 00:56:18;;;;;;;7.90;1.47;;;;;;;5.76;100.00;100701.84;5071339;28;20063;-58
2023/12/23 00:58:47;;;;;;;13.30;1.65;;;;;;;5.76;100.00;100698.41;5070167;28;20056;-58
2023/12/23 01:01:17;;;;;;;14.20;1.88;;;;;;;5.73;100.00;100693.34;5072551;28;20084;-57
2023/12/23 01:03:45;;;;;;;12.98;1.88;;;;;;;5.73;100.00;100703.78;5073481;28;20467;-58
2023/12/23 01:06:13;;;;;;;13.18;1.85;;;;;;;5.73;100.00;100704.63;5071239;28;20563;-57
2023/12/23 01:08:41;;;;;;;11.43;1.95;;;;;;;5.72;100.00;100707.28;5070004;28;20484;-58
2023/12/23 01:11:10;;;;;;;13.88;1.60;;;;;;;5.74;100.00;100706.31;5073606;28;20507;-57
2023/12/23 01:13:39;;;;;;;8.70;1.70;;;;;;;5.77;100.00;100705.31;5073529;28;20041;-58
2023/12/23 01:16:07;;;;;;;14.32;1.80;;;;;;;5.75;100.00;100696.72;5072435;28;20048;-58
2023/12/23 01:18:36;;;;;;;9.82;1.63;;;;;;;5.74;100.00;100695.03;5073113;28;20128;-50
2023/12/23 01:21:05;;;;;;;8.02;1.38;;;;;;;5.75;100.00;100694.09;5073300;28;20361;-57
2023/12/23 01:23:33;;;;;;;8.43;1.70;;;;;;;5.74;100.00;100697.66;5073231;28;20041;-57
2023/12/23 01:26:01;;;;;;;11.30;1.88;;;;;;;5.75;100.00;100694.09;5073317;28;20056;-51
2023/12/23 01:28:29;;;;;;;8.20;1.55;;;;;;;5.74;100.00;100698.47;5073017;28;20098;-47
2023/12/23 01:30:58;;;;;;;11.30;1.77;;;;;;;5.75;100.00;100692.34;5072945;28;20041;-46
2023/12/23 01:33:26;;;;;;;11.60;1.70;;;;;;;5.76;100.00;100687.97;5073019;28;20539;-46
2023/12/23 01:35:55;;;;;;;10.07;1.35;;;;;;;5.76;100.00;100678.34;5073318;28;20071;-47
2023/12/23 01:38:24;;;;;;;7.25;1.30;;;;;;;5.79;100.00;100679.97;5072459;28;20051;-46
2023/12/23 01:40:51;;;;;;;16.48;1.90;;;;;;;5.78;100.00;100674.84;5072849;28;20734;-49
2023/12/23 01:43:19;;;;;;;10.00;1.35;;;;;;;5.80;100.00;100676.47;5071424;28;20059;-46
2023/12/23 01:45:53;;;;;;;8.88;1.90;;;;;;;5.78;100.00;100667.00;5072940;28;20108;-45
2023/12/23 01:48:22;;;;;;;9.00;1.75;;;;;;;5.78;100.00;100665.25;5072799;28;20135;-46
2023/12/23 01:50:53;;;;;;;8.43;1.50;;;;;;;5.76;100.00;100669.69;5072862;28;20106;-45
2023/12/23 01:53:22;;;;;;;10.77;1.58;;;;;;;5.78;100.00;100654.81;5072711;28;20064;-46
2023/12/23 01:55:52;;;;;;;9.95;1.42;;;;;;;5.75;100.00;100663.66;5072465;28;20048;-47
2023/12/23 01:58:21;;;;;;;5.05;1.20;;;;;;;5.76;100.00;100643.59;5072624;28;20411;-47
2023/12/23 02:00:49;;;;;;;11.10;1.58;;;;;;;5.76;100.00;100651.44;5071269;28;20075;-46
2023/12/23 02:03:18;;;;;;;14.52;1.50;;;;;;;5.76;100.00;100651.44;5069016;28;20546;-45
2023/12/23 02:05:46;;;;;;;10.65;1.55;;;;;;;5.81;100.00;100652.06;5070356;28;20052;-46
2023/12/23 02:08:15;;;;;;;11.55;1.85;;;;;;;5.82;100.00;100639.84;5071201;28;20071;-46
2023/12/23 02:10:46;;;;;;;8.15;1.23;;;;;;;5.83;100.00;100631.09;5069722;28;20114;-46
2023/12/23 02:13:20;;;;;;;4.25;1.00;;;;;;;5.81;100.00;100625.09;5071073;28;20407;-46
2023/12/23 02:15:50;;;;;;;8.57;1.50;;;;;;;5.82;100.00;100639.84;5072168;28;20056;-48
2023/12/23 02:18:19;;;;;;;10.15;1.63;;;;;;;5.84;100.00;100625.81;5072232;28;20047;-49
2023/12/23 02:20:50;;;;;;;7.85;1.30;;;;;;;5.84;100.00;100620.59;5072151;28;20372;-45
2023/12/23 02:23:18;;;;;;;9.00;1.58;;;;;;;5.87;100.00;100607.38;5072070;28;20053;-46
2023/12/23 02:25:55;;;;;;;13.27;1.95;;;;;;;5.87;100.00;100609.97;5072066;28;20053;-49
2023/12/23 02:28:25;;;;;;;10.18;1.45;;;;;;;5.89;100.00;100610.78;5070762;28;20045;-45
2023/12/23 02:30:54;;;;;;;10.95;1.40;;;;;;;5.89;100.00;100610.78;5072017;28;20041;-45
2023/12/23 02:33:23;;;;;;;7.65;1.42;;;;;;;5.87;100.00;100607.38;5071889;28;20044;-45
2023/12/23 02:35:53;;;;;;;8.45;1.20;;;;;;;5.90;100.00;100602.03;5071944;28;20127;-46
2023/12/23 02:38:22;;;;;;;6.78;1.02;;;;;;;5.90;100.00;100595.94;5071853;28;20045;-47
2023/12/23 02:40:50;;;;;;;12.57;1.88;;;;;;;5.87;100.00;100603.94;5071879;28;20040;-46
2023/12/23 02:43:18;;;;;;;14.52;1.60;;;;;;;5.88;100.00;100592.56;5071684;28;20041;-46
2023/12/23 02:45:47;;;;;;;12.07;1.40;;;;;;;5.90;100.00;100575.94;5071424;28;20049;-49
2023/12/23 02:48:14;;;;;;;6.68;1.77;;;;;;;5.93;100.00;100575.75;5071170;28;20063;-47
2023/12/23 02:50:42;;;;;;;8.48;1.30;;;;;;;5.91;100.00;100566.31;5069456;28;20111;-49
2023/12/23 02:53:12;;;;;;;12.10;1.85;;;;;;;5.91;100.00;100567.16;5071743;28;20047;-49
2023/12/23 02:55:40;;;;;;;11.07;1.45;;;;;;;5.92;100.00;100557.56;5070427;28;20052;-49
2023/12/23 02:58:09;;;;;;;7.93;1.80;;;;;;;5.92;100.00;100547.97;5069760;28;20563;-47
2023/12/23 03:00:38;;;;;;;9.43;1.75;;;;;;;5.93;100.00;100536.59;5066130;28;20052;-46
2023/12/23 03:03:06;;;;;;;7.85;1.58;;;;;;;5.94;100.00;100532.22;5070009;28;20040;-47
2023/12/23 03:05:34;;;;;;;9.82;1.58;;;;;;;5.96;100.00;100527.78;5071528;28;20442;-47
2023/12/23 03:08:02;;;;;;;6.07;1.35;;;;;;;5.97;100.00;100513.81;5071612;28;20052;-47
2023/12/23 03:10:32;;;;;;;6.53;1.70;;;;;;;5.98;100.00;100514.69;5071675;28;20123;-48
2023/12/23 03:13:00;;;;;;;8.52;2.20;;;;;;;6.00;100.00;100521.50;5071624;28;20072;-48
2023/12/23 03:15:28;;;;;;;12.35;2.60;;;;;;;6.06;100.00;100509.91;5071432;28;20090;-49
2023/12/23 03:17:57;;;;;;;10.48;2.70;;;;;;;6.11;100.00;100509.66;5071455;28;20044;-47
2023/12/23 03:20:26;;;;;;;13.18;3.40;;;;;;;6.16;100.00;100511.13;5071361;28;20544;-49
2023/12/23 03:22:54;;;;;;;8.15;3.45;;;;;;;6.22;100.00;100502.97;5071379;28;20048;-46
2023/12/23 03:25:24;;;;;;;12.70;4.82;;;;;;;6.24;100.00;100498.50;5069613;28;20044;-46
2023/12/23 03:27:53;;;;;;;14.88;4.53;;;;;;;6.33;100.00;100496.34;5066900;28;20047;-47
2023/12/23 03:30:21;;;;;;;10.20;4.75;;;;;;;6.39;100.00;100489.03;5068208;28;20159;-47
2023/12/23 03:32:52;;;;;;;15.27;6.03;;;;;;;6.48;100.00;100481.63;5067789;28;20128;-46
2023/12/23 03:35:21;;;;;;;11.18;4.93;;;;;;;6.64;100.00;100468.53;5071366;28;20391;-48
2023/12/23 03:37:52;;;;;;;15.32;5.50;;;;;;;6.67;100.00;100471.00;5071279;28;20050;-47
2023/12/23 03:40:21;;;;;;;15.80;5.72;;;;;;;6.70;100.00;100456.00;5071074;28;20127;-47
2023/12/23 03:42:49;;;;;;;15.02;5.43;;;;;;;6.74;100.00;100459.28;5067426;28;20040;-47
2023/12/23 03:45:19;;;;;;;19.42;5.75;;;;;;;6.80;100.00;100451.09;5067949;28;20055;-45
2023/12/23 03:47:48;;;;;;;13.60;5.65;;;;;;;6.84;100.00;100446.53;5071132;28;20049;-48
2023/12/23 03:50:16;;;;;;;18.02;5.85;;;;;;;6.89;100.00;100440.13;5069753;28;20057;-47
2023/12/23 03:52:44;;;;;;;14.95;4.75;;;;;;;6.94;100.00;100432.88;5071379;28;20052;-48
2023/12/23 03:55:13;;;;;;;19.40;4.32;;;;;;;6.98;100.00;100435.31;5071072;28;20136;-46
2023/12/23 03:57:43;;;;;;;14.38;4.15;;;;;;;7.00;100.00;100429.06;5069659;28;20061;-45
2023/12/23 04:00:16;;;;;;;14.10;3.63;;;;;;;7.07;100.00;100434.78;5071522;28;20124;-47
2023/12/23 04:02:46;;;;;;;18.65;3.70;;;;;;;7.14;100.00;100425.66;5072867;28;20049;-45
2023/12/23 04:05:16;;;;;;;10.88;3.00;;;;;;;7.16;100.00;100429.03;5074826;28;20072;-45
2023/12/23 04:07:44;;;;;;;13.30;3.03;;;;;;;7.21;100.00;100419.16;5073449;28;20059;-47
2023/12/23 04:10:13;;;;;;;13.93;3.45;;;;;;;7.24;100.00;100412.88;5073326;28;20564;-47
2023/12/23 04:12:41;;;;;;;11.35;3.42;;;;;;;7.24;100.00;100421.59;5073944;28;20044;-47
2023/12/23 04:15:09;;;;;;;17.02;2.88;;;;;;;7.26;100.00;100404.03;5071368;28;20056;-45
2023/12/23 04:17:39;;;;;;;12.82;2.47;;;;;;;7.26;100.00;100405.81;5070708;28;20502;-48
2023/12/23 04:20:09;;;;;;;12.80;2.35;;;;;;;7.33;100.00;100386.19;5073195;28;20044;-48
2023/12/23 04:22:38;;;;;;;12.80;2.35;;;;;;;7.34;100.00;100387.88;5074299;28;20090;-58
2023/12/23 04:25:07;;;;;;;13.10;2.50;;;;;;;7.42;100.00;100385.66;5071443;28;20040;-58
2023/12/23 04:27:35;;;;;;;7.85;2.05;;;;;;;7.46;100.00;100381.09;5070795;28;20044;-58
2023/12/23 04:30:03;;;;;;;14.38;2.10;;;;;;;7.54;100.00;100389.34;5072616;28;20093;-51
2023/12/23 04:32:32;;;;;;;10.00;1.85;;;;;;;7.53;100.00;100386.81;5073896;28;20044;-47
2023/12/23 04:35:04;;;;;;;10.38;2.08;;;;;;;7.59;100.00;100389.03;5074044;28;20051;-45
2023/12/23 04:37:34;;;;;;;14.18;2.55;;;;;;;7.63;100.00;100394.94;5073939;28;20052;-47
2023/12/23 04:40:02;;;;;;;11.38;2.15;;;;;;;7.60;100.00;100390.75;5074537;28;20044;-46
2023/12/23 04:42:30;;;;;;;12.65;2.60;;;;;;;7.59;100.00;100389.91;5073724;28;20044;-58
2023/12/23 04:44:58;;;;;;;8.15;2.00;;;;;;;7.64;100.00;100387.00;5074010;28;20052;-59
2023/12/23 04:47:29;;;;;;;12.85;2.15;;;;;;;7.60;100.00;100388.94;5074067;28;20138;-59
2023/12/23 04:49:57;;;;;;;10.07;2.20;;;;;;;7.60;100.00;100383.72;5074146;28;20527;-47
2023/12/23 04:52:26;;;;;;;7.47;1.90;;;;;;;7.64;100.00;100368.69;5073016;28;20136;-45
2023/12/23 04:54:55;;;;;;;11.45;1.90;;;;;;;7.63;100.00;100372.22;5070548;28;20055;-47
2023/12/23 04:57:23;;;;;;;13.23;2.25;;;;;;;7.67;100.00;100371.09;5069382;28;20135;-49
2023/12/23 04:59:54;;;;;;;14.48;2.90;;;;;;;7.64;100.00;100368.69;5072698;28;20052;-48
2023/12/23 05:02:25;;;;;;;12.50;1.95;;;;;;;7.64;100.00;100363.44;5071803;28;20523;-47
2023/12/23 05:04:53;;;;;;;10.55;2.22;;;;;;;7.64;100.00;100365.22;5070771;28;20062;-46
2023/12/23 05:07:21;;;;;;;17.60;2.30;;;;;;;7.67;100.00;100362.41;5070135;28;20048;-49
2023/12/23 05:09:49;;;;;;;11.15;2.35;;;;;;;7.68;100.00;100371.97;5072199;28;20127;-48
2023/12/23 05:12:19;;;;;;;15.32;2.47;;;;;;;7.70;100.00;100377.94;5067602;28;20041;-46
2023/12/23 05:14:47;;;;;;;11.80;2.03;;;;;;;7.74;100.00;100361.97;5072021;28;20076;-47
2023/12/23 05:17:15;;;;;;;10.13;2.58;;;;;;;7.79;100.00;100357.25;5073540;28;20041;-47
2023/12/23 05:19:43;;;;;;;9.48;2.35;;;;;;;7.78;100.00;100359.97;5073543;28;20435;-45
2023/12/23 05:22:12;;;;;;;10.25;2.08;;;;;;;7.82;100.00;100364.09;5073279;28;20040;-47
2023/12/23 05:24:42;;;;;;;13.10;2.50;;;;;;;7.84;100.00;100357.00;5071216;28;20476;-48
2023/12/23 05:27:11;;;;;;;9.40;1.98;;;;;;;7.86;100.00;100356.91;5069139;28;20044;-47
2023/12/23 05:29:41;;;;;;;11.52;1.92;;;;;;;7.85;100.00;100356.03;5072475;28;20056;-48
2023/12/23 05:32:09;;;;;;;11.88;1.95;;;;;;;7.83;100.00;100363.16;5073217;28;20053;-46
2023/12/23 05:34:37;;;;;;;12.80;2.20;;;;;;;7.82;100.00;100360.66;5073265;28;20051;-46
2023/12/23 05:37:09;;;;;;;11.00;2.20;;;;;;;7.83;100.00;100365.78;5070930;28;20388;-47
2023/12/23 05:39:38;;;;;;;10.35;1.98;;;;;;;7.85;100.00;100361.28;5069951;28;20066;-47
2023/12/23 05:42:06;;;;;;;17.05;2.20;;;;;;;7.88;100.00;100366.34;5072344;28;20051;-48
2023/12/23 05:44:34;;;;;;;15.18;1.95;;;;;;;7.89;100.00;100357.53;5069394;28;20527;-47
2023/12/23 05:47:04;;;;;;;8.05;1.70;;;;;;;7.87;100.00;100359.44;5068988;28;20128;-45
2023/12/23 05:49:32;;;;;;;10.80;2.20;;;;;;;7.92;100.00;100360.00;5070959;28;20499;-48
2023/12/23 05:52:00;;;;;;;10.23;1.90;;;;;;;7.89;100.00;100357.53;5072857;28;20053;-47
2023/12/23 05:54:29;;;;;;;10.75;2.17;;;;;;;7.88;100.00;100373.34;5072584;28;20396;-45
2023/12/23 05:56:57;;;;;;;8.50;1.85;;;;;;;7.87;100.00;100363.84;5072561;28;20063;-46
2023/12/23 05:59:25;;;;;;;12.93;2.45;;;;;;;7.89;100.00;100357.53;5072551;28;20124;-47
2023/12/23 06:01:56;;;;;;;14.25;2.45;;;;;;;7.83;100.00;100357.94;5072751;28;20051;-46
2023/12/23 06:04:26;;;;;;;13.40;2.75;;;;;;;7.81;100.00;100362.41;5070165;28;20040;-47
2023/12/23 06:06:54;;;;;;;13.27;2.60;;;;;;;7.82;100.00;100352.78;5068043;28;20083;-49
2023/12/23 06:09:30;;;;;;;14.35;2.70;;;;;;;7.81;100.00;100344.06;5071096;28;20061;-49
2023/12/23 06:12:02;;;;;;;11.10;2.50;;;;;;;7.79;100.00;100341.56;5072548;28;20058;-46
2023/12/23 06:14:31;;;;;;;12.52;2.60;;;;;;;7.76;100.00;100333.91;5072502;28;20547;-59
2023/12/23 06:16:59;;;;;;;13.82;2.47;;;;;;;7.76;100.00;100341.75;5069625;28;20555;-47
2023/12/23 06:19:28;;;;;;;12.45;3.25;;;;;;;7.77;100.00;100342.59;5068585;28;20070;-58
2023/12/23 06:21:56;;;;;;;13.52;2.20;;;;;;;7.76;100.00;100351.41;5071638;28;20181;-59
2023/12/23 06:24:24;;;;;;;14.02;2.13;;;;;;;7.78;100.00;100350.38;5071265;28;20045;-58
2023/12/23 06:26:53;;;;;;;11.77;2.45;;;;;;;7.82;100.00;100350.19;5071925;28;20113;-59
2023/12/23 06:29:21;;;;;;;12.70;2.03;;;;;;;7.82;100.00;100355.41;5072048;28;20515;-59
2023/12/23 06:31:49;;;;;;;13.50;3.45;;;;;;;7.85;100.00;100345.56;5069285;28;20435;-59
2023/12/23 06:34:18;;;;;;;12.38;2.10;;;;;;;7.82;100.00;100332.69;5069143;28;20048;-58
2023/12/23 06:36:56;;;;;;;14.35;2.67;;;;;;;7.83;100.00;100344.84;5072187;28;20046;-59
2023/12/23 06:39:25;;;;;;;13.77;2.88;;;;;;;7.82;100.00;100345.78;5070824;28;20396;-58
2023/12/23 06:41:53;;;;;;;13.88;2.50;;;;;;;7.80;100.00;100347.66;5068231;28;20056;-58
2023/12/23 06:44:22;;;;;;;11.82;2.50;;;;;;;7.83;100.00;100355.31;5070415;28;20043;-59
2023/12/23 06:46:51;;;;;;;10.73;2.58;;;;;;;7.81;100.00;100356.34;5072389;28;20048;-58
2023/12/23 06:49:24;;;;;;;13.10;2.67;;;;;;;7.80;100.00;100352.91;5072262;28;20616;-59
2023/12/23 06:51:52;;;;;;;11.15;2.50;;;;;;;7.82;100.00;100340.53;5071119;28;20102;-58
2023/12/23 06:54:24;;;;;;;12.70;2.80;;;;;;;7.81;100.00;100343.25;5072051;28;20561;-59
2023/12/23 06:56:52;;;;;;;15.43;2.75;;;;;;;7.81;100.00;100338.84;5070366;28;20102;-59
2023/12/23 06:59:21;;;;;;;13.00;2.33;;;;;;;7.84;100.00;100346.53;5071930;28;20466;-58
2023/12/23 07:01:49;;;;;;;12.98;2.53;;;;;;;7.84;100.00;100346.53;5072004;28;20044;-59
2023/12/23 07:04:17;;;;;;;14.18;2.65;;;;;;;7.82;100.00;100350.19;5071995;28;20060;-59
2023/12/23 07:06:45;;;;;;;14.55;2.72;;;;;;;7.83;100.00;100334.38;5071729;28;20051;-58
2023/12/23 07:09:13;;;;;;;15.80;2.60;;;;;;;7.85;100.00;100340.34;5071765;28;20052;-59
2023/12/23 07:11:43;;;;;;;8.63;2.03;;;;;;;7.84;100.00;100333.44;5071495;28;20098;-59
2023/12/23 07:14:11;;;;;;;13.10;2.65;;;;;;;7.84;100.00;100330.81;5071600;28;20045;-58
2023/12/23 07:16:43;;;;;;;12.10;2.67;;;;;;;7.84;100.00;100338.69;5070969;28;20060;-59
2023/12/23 07:19:13;;;;;;;12.55;2.70;;;;;;;7.85;100.00;100340.34;5070479;28;20045;-59
2023/12/23 07:21:41;;;;;;;14.68;2.58;;;;;;;7.91;100.00;100333.91;5069462;28;20048;-58
2023/12/23 07:24:09;;;;;;;12.30;3.03;;;;;;;7.93;100.00;100345.09;5067527;28;20055;-59
2023/12/23 07:26:37;;;;;;;14.32;2.50;;;;;;;7.92;100.00;100341.66;5068018;28;20596;-58
2023/12/23 07:29:07;;;;;;;12.50;2.10;;;;;;;7.91;100.00;100350.44;5067877;28;20040;-58
2023/12/23 07:31:35;;;;;;;12.23;2.70;;;;;;;7.97;100.00;100345.78;5070058;28;20056;-47
2023/12/23 07:34:03;;;;;;;12.13;2.17;;;;;;;7.97;100.00;100370.16;5071396;28;20036;-51
2023/12/23 07:36:32;;;;;;;12.05;2.10;;;;;;;7.97;100.00;100379.81;5071456;28;20063;-50
2023/12/23 07:39:00;;;;;;;11.43;2.22;;;;;;;8.02;100.00;100378.59;5075815;28;20052;-47
2023/12/23 07:41:28;;;;;;;9.00;2.10;;;;;;;8.06;100.00;100380.09;5075493;28;20040;-45
2023/12/23 07:43:57;;;;;;;9.90;2.35;;;;;;;8.10;100.00;100372.88;5074598;28;20499;-46
2023/12/23 07:46:27;;;;;;;10.02;2.17;;;;;;;8.09;100.00;100372.03;5074200;28;20053;-47
2023/12/23 07:48:55;;;;;;;16.08;2.78;;;;;;;8.13;100.00;100380.53;5062039;28;20414;-48
2023/12/23 07:51:23;;;;;;;12.95;2.20;;;;;;;8.17;100.00;100363.69;5074937;28;20862;-46
2023/12/23 07:53:51;;;;;;;14.80;2.22;;;;;;;8.18;100.00;100362.78;5074537;28;20048;-46
2023/12/23 07:56:20;;;;;;;12.88;2.30;;;;;;;8.22;100.00;100353.78;5072794;28;20106;-48
2023/12/23 07:58:48;;;;;;;10.35;1.98;;;;;;;8.25;100.00;100368.47;5073235;28;20056;-45
2023/12/23 08:01:16;;;;;;;11.35;2.28;;;;;;;8.27;100.00;100374.44;5073083;28;20127;-46
2023/12/23 08:03:46;;;;;;;12.48;2.45;;;;;;;8.28;100.00;100386.59;5071112;28;20059;-46
2023/12/23 08:06:15;;;;;;;14.60;2.53;;;;;;;8.34;100.00;100382.75;5070676;28;20434;-46
2023/12/23 08:08:44;;;;;;;11.00;2.17;;;;;;;8.32;100.00;100384.63;5074283;28;20044;-48
2023/12/23 08:11:12;;;;;;;10.15;2.10;;;;;;;8.38;100.00;100376.38;5073547;28;20056;-48
2023/12/23 08:13:41;;;;;;;11.15;2.00;;;;;;;8.39;100.00;100367.59;5074568;28;20048;-47
2023/12/23 08:16:09;;;;;;;10.20;2.15;;;;;;;8.41;100.00;100368.31;5074801;28;20121;-46
2023/12/23 08:18:37;;;;;;;12.05;2.35;;;;;;;8.42;100.00;100376.06;5074457;28;20060;-50
2023/12/23 08:21:10;;;;;;;13.73;1.90;;;;;;;8.45;100.00;100377.69;5073201;28;20041;-45
2023/12/23 08:23:38;;;;;;;12.75;2.10;;;;;;;8.45;100.00;100386.41;5071285;28;20048;-50
2023/12/23 08:26:06;;;;;;;12.63;2.10;;;;;;;8.46;100.00;100390.69;5071433;28;20515;-47
2023/12/23 08:28:34;;;;;;;10.45;2.10;;;;;;;8.51;100.00;100400.91;5073034;28;20068;-47
2023/12/23 08:31:03;;;;;;;13.43;2.00;;;;;;;8.54;100.00;100405.13;5072970;28;20056;-45
2023/12/23 08:33:31;;;;;;;13.40;2.90;;;;;;;8.55;100.00;100398.91;5074241;28;20044;-46
2023/12/23 08:36:00;;;;;;;16.42;2.00;;;;;;;8.56;100.00;100414.56;5072920;28;20408;-59
2023/12/23 08:38:29;;;;;;;16.15;2.03;;;;;;;8.60;100.00;100409.94;5069801;28;20139;-58
2023/12/23 08:40:58;;;;;;;12.45;2.17;;;;;;;8.59;100.00;100409.13;5073519;28;20052;-59
2023/12/23 08:43:26;;;;;;;11.85;2.03;;;;;;;8.56;100.00;100413.72;5074269;28;20036;-59
2023/12/23 08:45:54;;;;;;;12.60;2.20;;;;;;;8.54;100.00;100411.19;5074226;28;20489;-58
2023/12/23 08:48:22;;;;;;;16.00;2.50;;;;;;;8.59;100.00;100409.13;5073929;28;20131;-58
2023/12/23 08:50:51;;;;;;;10.90;2.22;;;;;;;8.62;100.00;100408.09;5070960;28;20052;-58
2023/12/23 08:53:19;;;;;;;10.27;2.08;;;;;;;8.62;100.00;100415.94;5070704;28;20049;-58
2023/12/23 08:55:49;;;;;;;11.95;2.28;;;;;;;8.61;100.00;100428.19;5071132;28;20056;-46
2023/12/23 08:58:18;;;;;;;9.63;2.22;;;;;;;8.66;100.00;100422.69;5069801;28;20057;-49
2023/12/23 09:00:46;;;;;;;11.05;2.13;;;;;;;8.68;100.00;100427.81;5073781;28;20594;-47
2023/12/23 09:03:14;;;;;;;9.40;1.92;;;;;;;8.66;100.00;100430.53;5070672;28;20072;-49
2023/12/23 09:05:43;;;;;;;7.88;1.63;;;;;;;8.67;100.00;100434.00;5071233;28;20860;-48
2023/12/23 09:08:13;;;;;;;9.77;1.75;;;;;;;8.71;100.00;100438.09;5070413;28;20059;-48
2023/12/23 09:10:41;;;;;;;9.10;1.70;;;;;;;8.77;100.00;100443.81;5070864;28;20067;-49
2023/12/23 09:13:11;;;;;;;15.57;2.28;;;;;;;8.76;100.00;100444.72;5073575;28;20119;-50
2023/12/23 09:15:39;;;;;;;9.02;1.88;;;;;;;8.82;100.00;100440.91;5073588;28;20476;-46
2023/12/23 09:18:07;;;;;;;9.35;1.90;;;;;;;8.78;100.00;100455.97;5073374;28;20079;-47
2023/12/23 09:20:36;;;;;;;8.30;1.40;;;;;;;8.80;100.00;100440.16;5073314;28;20044;-46
2023/12/23 09:23:04;;;;;;;7.97;1.83;;;;;;;8.80;100.00;100458.50;5073016;28;20044;-45
2023/12/23 09:25:32;;;;;;;8.90;1.55;;;;;;;8.80;100.00;100453.25;5068722;28;20067;-46
2023/12/23 09:28:00;;;;;;;9.95;1.67;;;;;;;8.80;100.00;100450.63;5070627;28;20044;-58
2023/12/23 09:30:29;;;;;;;7.80;1.45;;;;;;;8.82;100.00;100459.25;5071391;28;20131;-59
2023/12/23 09:32:58;;;;;;;9.18;1.80;;;;;;;8.83;100.00;100458.28;5069763;28;20050;-58
2023/12/23 09:35:26;;;;;;;13.68;2.22;;;;;;;8.79;100.00;100472.53;5072480;28;20043;-58
2023/12/23 09:37:54;;;;;;;10.65;1.67;;;;;;;8.78;100.00;100458.59;5073105;28;20045;-58
2023/12/23 09:40:22;;;;;;;10.23;1.80;;;;;;;8.79;100.00;100464.69;5073202;28;20555;-58
2023/12/23 09:42:51;;;;;;;10.20;1.67;;;;;;;8.80;100.00;100458.50;5073061;28;20102;-58
2023/12/23 09:45:20;;;;;;;12.02;1.77;;;;;;;8.81;100.00;100468.06;5072892;28;20063;-58
2023/12/23 09:47:50;;;;;;;9.25;1.67;;;;;;;8.82;100.00;100471.50;5073116;28;20403;-58
2023/12/23 09:50:18;;;;;;;8.50;1.95;;;;;;;8.81;100.00;100465.44;5072881;28;20526;-58
2023/12/23 09:52:52;;;;;;;9.95;2.40;;;;;;;8.80;100.00;100472.44;5073004;28;20075;-58
2023/12/23 09:55:21;;;;;;;9.50;2.30;;;;;;;8.80;100.00;100464.56;5072965;28;20114;-58
2023/12/23 09:57:49;;;;;;;8.35;1.55;;;;;;;8.81;100.00;100465.44;5072188;28;20576;-58
2023/12/23 10:00:19;;;;;;;9.15;1.77;;;;;;;8.79;100.00;100465.53;5072228;28;20060;-58
2023/12/23 10:02:47;;;;;;;11.20;1.92;;;;;;;8.80;100.00;100474.22;5071495;28;20047;-58
2023/12/23 10:05:18;;;;;;;10.50;1.50;;;;;;;8.83;100.00;100460.91;5072736;28;20367;-58
2023/12/23 10:07:47;;;;;;;9.43;1.48;;;;;;;8.80;100.00;100472.44;5072710;28;20048;-59
2023/12/23 10:10:15;;;;;;;12.60;2.30;;;;;;;8.80;100.00;100471.63;5072559;28;20044;-59
2023/12/23 10:12:43;;;;;;;10.95;2.20;;;;;;;8.78;100.00;100473.47;5072412;28;20519;-58
2023/12/23 10:15:12;;;;;;;8.88;1.88;;;;;;;8.80;100.00;100487.34;5072502;28;20032;-58
2023/12/23 10:17:43;;;;;;;10.88;1.77;;;;;;;8.86;100.00;100484.34;5072500;28;20041;-58
2023/12/23 10:20:13;;;;;;;10.23;1.90;;;;;;;8.84;100.00;100480.13;5072282;28;20124;-59
2023/12/23 10:22:45;;;;;;;10.57;1.80;;;;;;;8.82;100.00;100469.75;5072314;28;20124;-59
2023/12/23 10:25:14;;;;;;;15.40;2.10;;;;;;;8.83;100.00;100468.78;5072138;28;20040;-58
2023/12/23 10:27:44;;;;;;;10.77;1.65;;;;;;;8.86;100.00;100476.47;5072292;28;20519;-58
2023/12/23 10:30:13;;;;;;;12.70;1.90;;;;;;;8.87;100.00;100472.91;5071602;28;20048;-57
2023/12/23 10:32:47;;;;;;;7.90;1.50;;;;;;;8.86;100.00;100468.63;5068214;28;20464;-59
2023/12/23 10:35:21;;;;;;;11.65;2.38;;;;;;;8.88;100.00;100479.84;5069282;28;20060;-58
2023/12/23 10:37:54;;;;;;;9.85;1.67;;;;;;;8.86;100.00;100478.25;5068893;28;20147;-58
2023/12/23 10:40:25;;;;;;;10.40;1.85;;;;;;;8.86;100.00;100471.25;5072190;28;20044;-58
2023/12/23 10:43:00;;;;;;;10.50;2.42;;;;;;;8.87;100.00;100479.94;5070578;28;20621;-57
2023/12/23 10:45:28;;;;;;;11.47;1.93;;;;;;;8.88;100.00;100471.97;5071959;28;20049;-59
2023/12/23 10:48:01;;;;;;;13.05;2.13;;;;;;;8.91;100.00;100484.88;5071811;28;20515;-58
2023/12/23 10:50:31;;;;;;;8.40;1.70;;;;;;;8.90;100.00;100480.59;5071748;28;20144;-59
2023/12/23 10:53:02;;;;;;;9.40;1.90;;;;;;;8.92;100.00;100494.44;5068147;28;20044;-58
2023/12/23 10:55:33;;;;;;;9.43;1.90;;;;;;;8.92;100.00;100498.84;5069321;28;20567;-58
2023/12/23 10:58:02;;;;;;;13.50;1.95;;;;;;;8.94;100.00;100496.94;5071180;28;20123;-59
2023/12/23 11:00:30;;;;;;;8.20;1.50;;;;;;;8.94;100.00;100491.72;5071137;28;20075;-58
2023/12/23 11:02:59;;;;;;;16.15;2.25;;;;;;;8.94;100.00;100497.81;5071285;28;20051;-58
2023/12/23 11:05:27;;;;;;;11.95;1.98;;;;;;;8.93;100.00;100497.88;5071415;28;20059;-58
2023/12/23 11:07:57;;;;;;;10.15;1.70;;;;;;;8.93;100.00;100503.13;5071736;28;20412;-58
2023/12/23 11:10:40;;;;;;;11.43;2.63;;;;;;;8.92;100.00;100493.59;5071479;28;20467;-58
2023/12/23 11:13:09;;;;;;;7.40;1.50;;;;;;;9.00;100.00;100500.97;5070904;28;20048;-58
2023/12/23 11:15:38;;;;;;;8.85;1.90;;;;;;;9.03;100.00;100500.78;5071417;28;20044;-57
2023/12/23 11:18:07;;;;;;;9.65;1.90;;;;;;;9.00;100.00;100491.34;5071609;28;20403;-58
2023/12/23 11:20:49;;;;;;;10.40;1.92;;;;;;;8.96;100.00;100487.22;5071510;28;20070;-58
2023/12/23 11:23:32;;;;;;;8.82;2.22;;;;;;;8.96;100.00;100468.84;5071764;28;20495;-58
2023/12/23 11:26:02;;;;;;;8.30;1.53;;;;;;;8.98;100.00;100484.50;5071095;28;20044;-58
2023/12/23 11:28:33;;;;;;;10.07;1.67;;;;;;;8.99;100.00;100504.53;5067382;28;20789;-59